• Join FlightAware (Why Join?)
  • Login
  • US Flag 
12:11PM EDT


 

Airport Tracker/Info


-or-


 

Live Flight TrackerFlight Track Log ✈ N3333A ✈ 20-May-2013 ✈ KSHV - KLAL

Flight Track Log - Related Links

Times and Time Zones

All times are in EDT time to prevent confusion due to time zone crossing. See the N3333A flight status page for this flight to view local times or setup timezone preferences in your user account.

Time Position Orientation Groundspeed Altitude Reporting Facility
EDT Latitude Longitude Course Direction KTS MPH feet Rate Location/Type
10:39AM 32.4356 -93.8147 96° East 110 127 700  Level Fort Worth Center
10:40AM 32.4322 -93.7781 96° East 107 123 1,600 720 Climbing Fort Worth Center
10:42AM 32.4269 -93.7364 99° East 112 129 2,400 660 Climbing Fort Worth Center
10:43AM 32.4217 -93.6997 100° East 115 132 3,100 600 Climbing Fort Worth Center
10:44AM 32.4142 -93.6606 103° East 117 135 3,700 600 Climbing Fort Worth Center
10:44AM 32.4133 -93.6336 92° East 116 133 4,200 540 Climbing Fort Worth Center
10:45AM 32.4039 -93.5897 104° East 124 143 4,700 420 Climbing Fort Worth Center
10:46AM 32.3942 -93.5483 106° East 134 154 5,100 420 Climbing Fort Worth Center
10:48AM 32.3864 -93.4994 101° East 137 158 5,700 420 Climbing Fort Worth Center
10:49AM 32.3767 -93.4581 106° East 134 154 6,100 420 Climbing Fort Worth Center
10:49AM 32.3650 -93.4167 108° East 137 158 6,600 420 Climbing Fort Worth Center
10:50AM 32.3553 -93.3731 105° East 141 162 7,000 420 Climbing Fort Worth Center
10:52AM 32.3411 -93.3244 109° East 138 159 7,600 420 Climbing Fort Worth Center
10:53AM 32.3292 -93.2783 107° East 139 160 7,900 300 Climbing Fort Worth Center
10:54AM 32.3172 -93.2322 107° East 142 163 8,300 360 Climbing Fort Worth Center
10:55AM 32.3075 -93.1908 106° East 146 168 8,700 300 Climbing Fort Worth Center
10:56AM 32.2978 -93.1469 105° East 147 169 8,900 60 Climbing Fort Worth Center
10:56AM 32.2836 -93.1008 110° East 160 184 8,900  Level Fort Worth Center
10:58AM 32.2667 -93.0331 106° East 178 205 9,000  Climbing Fort Worth Center
11:00AM 32.2369 -92.8953 104° East 175 201 9,000  Level Houston Center
11:01AM 32.2225 -92.8394 107° East 177 204 9,000  Level Houston Center
11:02AM 32.2153 -92.7844 99° East 172 198 9,000 -60 Level Houston Center
11:03AM 32.2025 -92.7275 105° East 177 204 8,900  Descending Houston Center
11:04AM 32.1831 -92.6619 109° East 178 205 9,000  Climbing Houston Center
11:05AM 32.1683 -92.6081 108° East 175 201 9,000  Level Houston Center
11:06AM 32.1553 -92.5533 106° East 173 199 9,000  Level Houston Center
11:07AM 32.1417 -92.4994 107° East 173 199 9,000  Level Houston Center
11:08AM 32.1250 -92.4461 110° East 172 198 9,000  Level Houston Center
11:09AM 32.1122 -92.3917 105° East 172 198 9,000  Level Houston Center
11:11AM 32.1000 -92.3233 102° East 176 203 9,000  Level Houston Center
11:12AM 32.0908 -92.2678 101° East 173 199 9,000  Level Houston Center
11:13AM 32.0789 -92.2133 105° East 172 198 9,000  Level Houston Center
11:14AM 32.0664 -92.1594 105° East 172 198 9,000  Level Houston Center
11:15AM 32.0539 -92.1056 105° East 171 197 9,000  Level Houston Center
11:16AM 32.0417 -92.0522 105° East 169 194 9,000  Level Houston Center
11:17AM 32.0267 -91.9897 106° East 167 192 9,000  Level Houston Center
11:18AM 32.0144 -91.9378 105° East 166 191 9,000  Level Houston Center
11:19AM 32.0006 -91.8856 107° East 166 191 9,000  Level Houston Center
11:20AM 31.9883 -91.8319 105° East 168 193 9,000  Level Houston Center
11:21AM 31.9764 -91.7794 105° East 167 192 9,000  Level Houston Center
11:22AM 31.9628 -91.7164 104° East 166 191 9,000  Level Houston Center
11:23AM 31.9497 -91.6617 106° East 168 193 9,000  Level Houston Center
11:24AM 31.9392 -91.6097 103° East 168 193 9,000  Level Houston Center
11:25AM 31.9258 -91.5553 106° East 168 193 9,000  Level Houston Center
11:26AM 31.9136 -91.5000 105° East 172 198 9,000  Level Houston Center
11:27AM 31.9006 -91.4458 106° East 172 198 9,000  Level Houston Center
11:28AM 31.8867 -91.3836 105° East 169 194 9,000  Level Houston Center
11:29AM 31.8756 -91.3308 104° East 167 192 9,000  Level Houston Center
11:30AM 31.8644 -91.2789 104° East 165 190 9,000  Level Houston Center
11:31AM 31.8522 -91.2281 106° East 163 188 9,000  Level Houston Center
11:32AM 31.8417 -91.1769 104° East 162 186 9,000  Level Houston Center
11:33AM 31.8319 -91.1258 103° East 161 185 9,000  Level Houston Center
11:34AM 31.8194 -91.0647 104° East 160 184 9,000  Level Houston Center
11:35AM 31.8106 -91.0136 102° East 160 184 9,000  Level Houston Center
11:36AM 31.8019 -90.9656 102° East 158 182 9,000  Level Houston Center
11:37AM 31.7933 -90.9133 101° East 161 185 9,000  Level Houston Center
11:38AM 31.7856 -90.8639 100° East 156 180 9,000  Level Houston Center
11:40AM 31.7764 -90.8042 100° East 155 178 9,000  Level Houston Center
11:41AM 31.7642 -90.7567 107° East 153 176 9,000  Level Houston Center
11:42AM 31.7517 -90.7094 107° East 151 174 9,000  Level Houston Center
11:43AM 31.7400 -90.6631 106° East 150 173 9,000  Level Houston Center
11:44AM 31.7283 -90.6150 106° East 152 175 9,000  Level Houston Center
11:45AM 31.7167 -90.5664 106° East 154 177 9,000  Level Houston Center
11:46AM 31.7031 -90.5103 106° East 150 173 9,000  Level Houston Center
11:47AM 31.6914 -90.4636 106° East 150 173 9,000  Level Houston Center
11:48AM 31.6797 -90.4181 107° East 146 168 9,000  Level Houston Center
11:49AM 31.6661 -90.3722 109° East 148 170 9,000  Level Houston Center
11:50AM 31.6558 -90.3256 104° East 148 170 9,000  Level Houston Center
11:51AM 31.6436 -90.2786 107° East 150 173 9,000  Level Houston Center
11:52AM 31.6292 -90.2219 107° East 151 174 9,000  Level Houston Center
11:53AM 31.6178 -90.1750 106° East 150 173 9,000  Level Houston Center
11:54AM 31.6069 -90.1278 105° East 150 173 9,000  Level Houston Center
11:55AM 31.5969 -90.0775 103° East 156 180 9,000  Level Houston Center
11:56AM 31.5861 -90.0303 105° East 153 176 9,000  Level Houston Center
11:57AM 31.5756 -89.9828 105° East 151 174 9,000  Level Houston Center
11:58AM 31.5608 -89.9267 107° East 150 173 9,000  Level Houston Center
11:59AM 31.5489 -89.8769 106° East 156 180 9,000  Level Houston Center
12:00PM 31.5364 -89.8308 108° East 151 174 9,000  Level Houston Center
12:01PM 31.5228 -89.7847 109° East 150 173 9,000  Level Houston Center
12:02PM 31.5103 -89.7350 106° East 156 180 9,000  Level Houston Center
12:03PM 31.4994 -89.6856 104° East 157 181 9,000  Level Houston Center
12:04PM 31.4844 -89.6281 107° East 155 178 9,000  Level Houston Center
12:05PM 31.4725 -89.5800 106° East 155 178 9,000  Level Houston Center
12:06PM 31.4608 -89.5339 107° East 158 182 9,000  Level Houston Center
12:07PM 31.4475 -89.4744 105° East 157 181 9,000  Level Houston Center
12:09PM 31.4350 -89.4267 107° East 155 178 9,000  Level Houston Center
12:10PM 31.4225 -89.3778 107° East 156 180 9,000  Level Houston Center
12:11PM 31.4083 -89.3303 109° East 155 178 9,000  Level Houston Center
12:12PM 31.3953 -89.2825 108° East 155 178 9,000  Level Houston Center
12:13PM 31.3797 -89.2222 107° East 159 183 9,000  Level Houston Center
12:14PM 31.3675 -89.1728 106° East 159 183 9,000  Level Houston Center
12:15PM 31.3547 -89.1239 107° East 158 182 9,000  Level Houston Center
12:16PM 31.3422 -89.0747 107° East 158 182 9,000  Level Houston Center
12:17PM 31.3278 -89.0256 109° East 160 184 9,000  Level Houston Center
12:18PM 31.3158 -88.9758 106° East 160 184 9,000  Level Houston Center
12:19PM 31.3006 -88.9161 107° East 159 183 9,000  Level Houston Center
12:20PM 31.2875 -88.8661 107° East 160 184 9,000  Level Houston Center
12:21PM 31.2753 -88.8158 106° East 161 185 9,000  Level Houston Center
12:22PM 31.2636 -88.7656 105° East 161 185 9,000  Level Houston Center
12:23PM 31.2511 -88.7144 106° East 162 186 9,000  Level Houston Center
12:24PM 31.2378 -88.6642 107° East 162 186 9,000  Level Houston Center
12:25PM 31.2222 -88.6033 107° East 164 189 9,000  Level Houston Center
12:26PM 31.2086 -88.5531 108° East 163 188 9,000  Level Houston Center
12:27PM 31.1947 -88.5025 108° East 163 188 9,000  Level Houston Center
12:28PM 31.1811 -88.4522 108° East 162 186 9,000  Level Houston Center
12:29PM 31.1672 -88.4017 108° East 163 188 9,000  Level Houston Center
12:30PM 31.1547 -88.3519 106° East 160 184 9,000  Level Houston Center
12:31PM 31.1392 -88.2903 106° East 163 188 9,000  Level Houston Center
12:32PM 31.1261 -88.2386 106° East 163 188 9,000  Level Houston Center
12:33PM 31.1128 -88.1864 107° East 164 189 9,000  Level Houston Center
12:34PM 31.0992 -88.1347 107° East 166 191 9,000  Level Houston Center
12:35PM 31.0850 -88.0833 108° East 166 191 9,000  Level Houston Center
12:36PM 31.0703 -88.0328 109° East 167 192 9,000  Level Houston Center
12:37PM 31.0569 -87.9819 107° East 165 190 9,000  Level Houston Center
12:39PM 31.0408 -87.9206 107° East 166 191 9,000  Level Houston Center
12:40PM 31.0275 -87.8711 107° East 163 188 9,000  Level Houston Center
12:41PM 31.0131 -87.8206 108° East 164 189 9,000  Level Houston Center
12:42PM 30.9992 -87.7703 108° East 164 189 9,000  Level Houston Center
12:43PM 30.9900 -87.7192 102° East 164 189 9,000  Level Houston Center
12:44PM 30.9819 -87.6667 100° East 165 190 9,000  Level Houston Center
12:45PM 30.9728 -87.6039 100° East 166 191 9,000  Level Houston Center
12:46PM 30.9644 -87.5522 101° East 166 191 9,000  Level Houston Center
12:47PM 30.9572 -87.5008 99° East 162 186 9,000  Level Houston Center
12:48PM 30.9497 -87.4486 99° East 165 190 9,000  Level Houston Center
12:49PM 30.9419 -87.3972 100° East 162 186 9,000  Level Houston Center
12:49PM 30.9353 -87.3681 105° East 161 185 9,000  Level Jacksonville Center
12:50PM 30.9244 -87.3142 103° East 161 185 9,000  Level Jacksonville Center
12:51PM 30.9178 -87.2681 100° East 164 189 9,000  Level Jacksonville Center
12:52PM 30.9094 -87.2094 99° East 161 185 9,000  Level Jacksonville Center
12:54PM 30.8989 -87.1533 102° East 162 186 9,000  Level Jacksonville Center
12:55PM 30.8900 -87.1069 103° East 163 188 9,000  Level Jacksonville Center
12:56PM 30.8656 -87.0630 123° Southeast  Level FlightAware Approximate
01:03PM 30.7639 -86.7167 107° East  Level Estimated
01:04PM 30.7462 -86.6687 113° Southeast  Level FlightAware Approximate
01:05PM 30.7284 -86.6208 113° Southeast  Level FlightAware Approximate
01:06PM 30.7106 -86.5728 113° Southeast  Level FlightAware Approximate
01:07PM 30.6927 -86.5249 113° Southeast  Level FlightAware Approximate
01:08PM 30.6749 -86.4770 113° Southeast  Level FlightAware Approximate
01:09PM 30.6570 -86.4291 113° Southeast  Level FlightAware Approximate
01:10PM 30.6392 -86.3812 113° Southeast  Level FlightAware Approximate
01:11PM 30.6213 -86.3334 113° Southeast  Level FlightAware Approximate
01:12PM 30.6033 -86.2855 113° Southeast  Level FlightAware Approximate
01:13PM 30.5854 -86.2377 114° Southeast  Level FlightAware Approximate
01:14PM 30.5675 -86.1899 114° Southeast  Level FlightAware Approximate
01:15PM 30.5495 -86.1421 114° Southeast  Level FlightAware Approximate
01:16PM 30.5315 -86.0943 114° Southeast  Level FlightAware Approximate
01:17PM 30.5135 -86.0466 114° Southeast  Level FlightAware Approximate
01:18PM 30.4955 -85.9988 114° Southeast  Level FlightAware Approximate
01:19PM 30.4768 -85.9471 111° Southeast  Level FlightAware Approximate
01:20PM 30.4606 -85.8985 111° Southeast  Level FlightAware Approximate
01:21PM 30.4445 -85.8499 111° Southeast  Level FlightAware Approximate
01:22PM 30.4282 -85.8013 111° Southeast  Level FlightAware Approximate
01:23PM 30.4126 -85.7525 108° East  Level FlightAware Approximate
01:24PM 30.3985 -85.7031 108° East  Level FlightAware Approximate
01:25PM 30.3843 -85.6537 108° East  Level FlightAware Approximate
01:26PM 30.3701 -85.6043 108° East  Level FlightAware Approximate
01:27PM 30.3559 -85.5549 108° East  Level FlightAware Approximate
01:28PM 30.3417 -85.5056 108° East  Level FlightAware Approximate
01:29PM 30.3274 -85.4563 108° East  Level FlightAware Approximate
01:30PM 30.3132 -85.4069 109° East  Level FlightAware Approximate
01:31PM 30.2989 -85.3576 109° East  Level FlightAware Approximate
01:32PM 30.2846 -85.3083 109° East  Level FlightAware Approximate
01:33PM 30.2703 -85.2591 109° East  Level FlightAware Approximate
01:34PM 30.2559 -85.2098 109° East  Level FlightAware Approximate
01:35PM 30.2416 -85.1606 109° East  Level FlightAware Approximate
01:36PM 30.2272 -85.1113 109° East  Level FlightAware Approximate
01:37PM 30.2128 -85.0621 109° East  Level FlightAware Approximate
01:38PM 30.1984 -85.0129 109° East  Level FlightAware Approximate
01:39PM 30.1840 -84.9637 109° East  Level FlightAware Approximate
01:40PM 30.1695 -84.9145 109° East  Level FlightAware Approximate
01:41PM 30.1550 -84.8653 109° East  Level FlightAware Approximate
01:42PM 30.1406 -84.8162 109° East  Level FlightAware Approximate
01:43PM 30.1261 -84.7671 109° East  Level FlightAware Approximate
01:44PM 30.1115 -84.7179 109° East  Level FlightAware Approximate
01:45PM 30.0970 -84.6688 109° East  Level FlightAware Approximate
01:46PM 30.0824 -84.6198 109° East  Level FlightAware Approximate
01:47PM 30.0679 -84.5707 109° East  Level FlightAware Approximate
01:48PM 30.0539 -84.5214 108° East  Level FlightAware Approximate
01:48PM 30.0861 -84.4264 108° East 169 194 9,100  Level Jacksonville Center
01:49PM 30.0399 -84.4721 108° East  Level FlightAware Approximate
01:49PM 30.0700 -84.3783 111° Southeast 169 194 9,100  Level Jacksonville Center
01:50PM 30.0259 -84.4228 108° East  Level FlightAware Approximate
01:50PM 30.0517 -84.3253 112° Southeast 169 194 9,100  Level Jacksonville Center
01:51PM 30.0119 -84.3735 108° East  Level FlightAware Approximate
01:51PM 30.0314 -84.2744 115° Southeast 169 194 9,100  Level Jacksonville Center
01:52PM 29.9979 -84.3242 108° East  Level FlightAware Approximate
01:52PM 30.0217 -84.2239 103° East 169 194 9,100  Level Jacksonville Center
01:53PM 29.9839 -84.2750 108° East  Level FlightAware Approximate
01:53PM 30.0011 -84.1758 116° Southeast 169 194 9,100  Level Jacksonville Center
01:54PM 29.9869 -84.1300 110° East 169 194 9,100 -60 Level Jacksonville Center
01:55PM 29.9708 -84.0819 111° Southeast 169 194 9,000 -300 Descending Jacksonville Center
01:56PM 29.9544 -84.0314 111° Southeast 169 194 8,500 -540 Descending Jacksonville Center
01:57PM 29.9425 -83.9736 103° East 169 194 8,000 -480 Descending Jacksonville Center
01:58PM 29.9261 -83.9231 110° East 169 194 7,600 -420 Descending Jacksonville Center
01:59PM 29.9119 -83.8703 107° East 169 194 7,200 -420 Descending Jacksonville Center
02:00PM 29.8958 -83.8197 110° East 169 194 6,800 -600 Descending Jacksonville Center
02:01PM 29.8794 -83.7669 110° East 169 194 6,000 -600 Descending Jacksonville Center
02:02PM 29.8650 -83.7164 108° East 169 194 5,600 -540 Descending Jacksonville Center
02:03PM 29.8528 -83.6661 106° East 169 194 5,000 -360 Descending Jacksonville Center
02:04PM 29.8406 -83.6181 106° East 169 194 4,900 -60 Descending Jacksonville Center
02:05PM 29.8242 -83.5750 114° Southeast 159 183 4,900  Level Jacksonville Center
02:06PM 29.8078 -83.5317 114° Southeast 152 175 4,900  Level Jacksonville Center